Terminal Aerodrome Forecast
Issued by NWS

Home | Current Version | Previous Version | Text Only | Print | Product List | Glossary On
Versions: 1 2 3 4 5 6 7 8 9 10 11 12 13 14 15 16 17 18 19 20 21 22 23 24 25 26 27 28 29 30 31 32 33 34 35 36 37 38 39 40 41 42 43 44 45 46 47 48 49 50
000
FTUS46 KLOX 201140
TAFLAX
TAF
KLAX 201140Z 2012/2118 VRB04KT P6SM BKN200
     FM202000 27008KT P6SM BKN200
     FM210300 27012KT P6SM BKN025
     FM210500 27015G25KT P6SM BKN025 OVC120
     FM211300 31015G22KT P6SM SCT030 BKN150=

USA.gov is the U.S. government's official web portal to all federal, state and local government web resources and services.